sensor_id;sensor_type;location;lat;lon;timestamp;temperature;humidity
26164;DHT22;13914;48.178;11.716;2022-12-10T00:00:53;1.30;99.90
26164;DHT22;13914;48.178;11.716;2022-12-10T00:03:19;1.40;99.90
26164;DHT22;13914;48.178;11.716;2022-12-10T00:05:44;1.30;99.90
26164;DHT22;13914;48.178;11.716;2022-12-10T00:08:10;1.30;99.90
26164;DHT22;13914;48.178;11.716;2022-12-10T00:10:39;1.30;99.90
26164;DHT22;13914;48.178;11.716;2022-12-10T00:13:05;1.40;99.90
26164;DHT22;13914;48.178;11.716;2022-12-10T00:15:34;1.40;99.90
26164;DHT22;13914;48.178;11.716;2022-12-10T00:18:00;1.40;99.90
26164;DHT22;13914;48.178;11.716;2022-12-10T00:20:25;1.30;99.90
26164;DHT22;13914;48.178;11.716;2022-12-10T00:22:51;1.30;99.90
26164;DHT22;13914;48.178;11.716;2022-12-10T00:25:17;1.40;99.90
26164;DHT22;13914;48.178;11.716;2022-12-10T00:27:42;1.30;99.90
26164;DHT22;13914;48.178;11.716;2022-12-10T00:30:08;1.30;99.90
26164;DHT22;13914;48.178;11.716;2022-12-10T00:32:34;1.30;99.90
26164;DHT22;13914;48.178;11.716;2022-12-10T00:35:00;1.30;99.90
26164;DHT22;13914;48.178;11.716;2022-12-10T00:37:26;1.40;99.90
26164;DHT22;13914;48.178;11.716;2022-12-10T00:39:52;1.30;99.90
26164;DHT22;13914;48.178;11.716;2022-12-10T00:42:17;1.40;99.90
26164;DHT22;13914;48.178;11.716;2022-12-10T00:44:43;1.30;99.90
26164;DHT22;13914;48.178;11.716;2022-12-10T00:47:09;1.30;99.90
26164;DHT22;13914;48.178;11.716;2022-12-10T00:49:34;1.30;99.90
26164;DHT22;13914;48.178;11.716;2022-12-10T00:52:00;1.40;99.90
26164;DHT22;13914;48.178;11.716;2022-12-10T00:54:26;1.40;99.90
26164;DHT22;13914;48.178;11.716;2022-12-10T00:56:51;1.30;99.90
26164;DHT22;13914;48.178;11.716;2022-12-10T00:59:17;1.30;99.90
26164;DHT22;13914;48.178;11.716;2022-12-10T01:01:42;1.30;99.90
26164;DHT22;13914;48.178;11.716;2022-12-10T01:04:12;1.30;99.90
26164;DHT22;13914;48.178;11.716;2022-12-10T01:06:46;1.30;99.90
26164;DHT22;13914;48.178;11.716;2022-12-10T01:09:17;1.30;99.90
26164;DHT22;13914;48.178;11.716;2022-12-10T01:11:45;1.30;99.90
26164;DHT22;13914;48.178;11.716;2022-12-10T01:14:13;1.30;99.90
26164;DHT22;13914;48.178;11.716;2022-12-10T01:16:43;1.40;99.90
26164;DHT22;13914;48.178;11.716;2022-12-10T01:19:09;1.30;99.90
26164;DHT22;13914;48.178;11.716;2022-12-10T01:21:35;1.30;99.90
26164;DHT22;13914;48.178;11.716;2022-12-10T01:24:01;1.30;99.90
26164;DHT22;13914;48.178;11.716;2022-12-10T01:26:28;1.30;99.90
26164;DHT22;13914;48.178;11.716;2022-12-10T01:28:56;1.30;99.90
26164;DHT22;13914;48.178;11.716;2022-12-10T01:31:32;1.30;99.90
26164;DHT22;13914;48.178;11.716;2022-12-10T01:33:59;1.30;99.90
26164;DHT22;13914;48.178;11.716;2022-12-10T01:36:27;1.30;99.90
26164;DHT22;13914;48.178;11.716;2022-12-10T01:39:00;1.40;99.90
26164;DHT22;13914;48.178;11.716;2022-12-10T01:41:35;1.40;99.90
26164;DHT22;13914;48.178;11.716;2022-12-10T01:44:03;1.30;99.90
26164;DHT22;13914;48.178;11.716;2022-12-10T01:46:54;1.30;99.90
26164;DHT22;13914;48.178;11.716;2022-12-10T01:49:23;1.30;99.90
26164;DHT22;13914;48.178;11.716;2022-12-10T01:51:52;1.30;99.90
26164;DHT22;13914;48.178;11.716;2022-12-10T01:54:21;1.30;99.90
26164;DHT22;13914;48.178;11.716;2022-12-10T01:56:50;1.30;99.90
26164;DHT22;13914;48.178;11.716;2022-12-10T01:59:19;1.30;99.90
26164;DHT22;13914;48.178;11.716;2022-12-10T02:01:49;1.30;99.90
26164;DHT22;13914;48.178;11.716;2022-12-10T02:04:22;1.30;99.90
26164;DHT22;13914;48.178;11.716;2022-12-10T02:09:36;1.30;99.90
26164;DHT22;13914;48.178;11.716;2022-12-10T02:17:35;1.30;99.90
26164;DHT22;13914;48.178;11.716;2022-12-10T02:22:36;1.30;99.90
26164;DHT22;13914;48.178;11.716;2022-12-10T02:25:05;1.30;99.90
26164;DHT22;13914;48.178;11.716;2022-12-10T02:27:35;1.30;99.90
26164;DHT22;13914;48.178;11.716;2022-12-10T02:30:05;1.30;99.90
26164;DHT22;13914;48.178;11.716;2022-12-10T02:32:33;1.30;99.90
26164;DHT22;13914;48.178;11.716;2022-12-10T02:35:01;1.30;99.90
26164;DHT22;13914;48.178;11.716;2022-12-10T02:37:31;1.30;99.90
26164;DHT22;13914;48.178;11.716;2022-12-10T02:40:02;1.30;99.90
26164;DHT22;13914;48.178;11.716;2022-12-10T02:42:31;1.30;99.90
26164;DHT22;13914;48.178;11.716;2022-12-10T02:44:59;1.30;99.90
26164;DHT22;13914;48.178;11.716;2022-12-10T02:47:25;1.30;99.90
26164;DHT22;13914;48.178;11.716;2022-12-10T02:49:52;1.30;99.90
26164;DHT22;13914;48.178;11.716;2022-12-10T02:52:19;1.30;99.90
26164;DHT22;13914;48.178;11.716;2022-12-10T02:54:47;1.30;99.90
26164;DHT22;13914;48.178;11.716;2022-12-10T02:57:28;1.30;99.90
26164;DHT22;13914;48.178;11.716;2022-12-10T03:00:08;1.30;99.90
26164;DHT22;13914;48.178;11.716;2022-12-10T03:03:03;1.30;99.90
26164;DHT22;13914;48.178;11.716;2022-12-10T03:08:29;1.30;99.90
26164;DHT22;13914;48.178;11.716;2022-12-10T03:13:39;1.30;99.90
26164;DHT22;13914;48.178;11.716;2022-12-10T03:16:10;1.30;99.90
26164;DHT22;13914;48.178;11.716;2022-12-10T03:18:36;1.20;99.90
26164;DHT22;13914;48.178;11.716;2022-12-10T03:21:04;1.30;99.90
26164;DHT22;13914;48.178;11.716;2022-12-10T03:23:31;1.30;99.90
26164;DHT22;13914;48.178;11.716;2022-12-10T03:25:59;1.20;99.90
26164;DHT22;13914;48.178;11.716;2022-12-10T03:28:25;1.30;99.90
26164;DHT22;13914;48.178;11.716;2022-12-10T03:30:51;1.20;99.90
26164;DHT22;13914;48.178;11.716;2022-12-10T03:33:18;1.20;99.90
26164;DHT22;13914;48.178;11.716;2022-12-10T03:35:44;1.30;99.90
26164;DHT22;13914;48.178;11.716;2022-12-10T03:38:10;1.20;99.90
26164;DHT22;13914;48.178;11.716;2022-12-10T03:40:36;1.20;99.90
26164;DHT22;13914;48.178;11.716;2022-12-10T03:43:02;1.20;99.90
26164;DHT22;13914;48.178;11.716;2022-12-10T03:45:28;1.20;99.90
26164;DHT22;13914;48.178;11.716;2022-12-10T03:47:53;1.20;99.90
26164;DHT22;13914;48.178;11.716;2022-12-10T03:50:19;1.20;99.90
26164;DHT22;13914;48.178;11.716;2022-12-10T03:52:45;1.20;99.90
26164;DHT22;13914;48.178;11.716;2022-12-10T03:55:10;1.20;99.90
26164;DHT22;13914;48.178;11.716;2022-12-10T03:57:36;1.20;99.90
26164;DHT22;13914;48.178;11.716;2022-12-10T04:00:03;1.20;99.90
26164;DHT22;13914;48.178;11.716;2022-12-10T04:02:30;1.20;99.90
26164;DHT22;13914;48.178;11.716;2022-12-10T04:04:55;1.20;99.90
26164;DHT22;13914;48.178;11.716;2022-12-10T04:07:21;1.20;99.90
26164;DHT22;13914;48.178;11.716;2022-12-10T04:09:47;1.20;99.90
26164;DHT22;13914;48.178;11.716;2022-12-10T04:12:12;1.20;99.90
26164;DHT22;13914;48.178;11.716;2022-12-10T04:14:38;1.20;99.90
26164;DHT22;13914;48.178;11.716;2022-12-10T04:17:22;1.20;99.90
26164;DHT22;13914;48.178;11.716;2022-12-10T04:19:48;1.20;99.90
26164;DHT22;13914;48.178;11.716;2022-12-10T04:22:14;1.20;99.90
26164;DHT22;13914;48.178;11.716;2022-12-10T04:25:15;1.20;99.90
26164;DHT22;13914;48.178;11.716;2022-12-10T04:27:59;1.20;99.90
26164;DHT22;13914;48.178;11.716;2022-12-10T04:30:24;1.20;99.90
26164;DHT22;13914;48.178;11.716;2022-12-10T04:32:50;1.20;99.90
26164;DHT22;13914;48.178;11.716;2022-12-10T04:35:16;1.20;99.90
26164;DHT22;13914;48.178;11.716;2022-12-10T04:37:41;1.20;99.90
26164;DHT22;13914;48.178;11.716;2022-12-10T04:40:07;1.20;99.90
26164;DHT22;13914;48.178;11.716;2022-12-10T04:42:33;1.20;99.90
26164;DHT22;13914;48.178;11.716;2022-12-10T04:44:59;1.20;99.90
26164;DHT22;13914;48.178;11.716;2022-12-10T04:47:25;1.20;99.90
26164;DHT22;13914;48.178;11.716;2022-12-10T04:49:50;1.10;99.90
26164;DHT22;13914;48.178;11.716;2022-12-10T04:52:16;1.20;99.90
26164;DHT22;13914;48.178;11.716;2022-12-10T04:54:42;1.20;99.90
26164;DHT22;13914;48.178;11.716;2022-12-10T04:57:09;1.10;99.90
26164;DHT22;13914;48.178;11.716;2022-12-10T04:59:35;1.10;99.90
26164;DHT22;13914;48.178;11.716;2022-12-10T05:02:01;1.10;99.90
26164;DHT22;13914;48.178;11.716;2022-12-10T05:04:28;1.10;99.90
26164;DHT22;13914;48.178;11.716;2022-12-10T05:06:53;1.10;99.90
26164;DHT22;13914;48.178;11.716;2022-12-10T05:09:19;1.10;99.90
26164;DHT22;13914;48.178;11.716;2022-12-10T05:11:45;1.10;99.90
26164;DHT22;13914;48.178;11.716;2022-12-10T05:14:11;1.10;99.90
26164;DHT22;13914;48.178;11.716;2022-12-10T05:16:37;1.10;99.90
26164;DHT22;13914;48.178;11.716;2022-12-10T05:19:03;1.10;99.90
26164;DHT22;13914;48.178;11.716;2022-12-10T05:21:29;1.10;99.90
26164;DHT22;13914;48.178;11.716;2022-12-10T05:24:15;1.00;99.90
26164;DHT22;13914;48.178;11.716;2022-12-10T05:26:42;1.10;99.90
26164;DHT22;13914;48.178;11.716;2022-12-10T05:29:08;1.10;99.90
26164;DHT22;13914;48.178;11.716;2022-12-10T05:31:34;1.10;99.90
26164;DHT22;13914;48.178;11.716;2022-12-10T05:34:00;1.10;99.90
26164;DHT22;13914;48.178;11.716;2022-12-10T05:36:27;1.10;99.90
26164;DHT22;13914;48.178;11.716;2022-12-10T05:38:54;1.10;99.90
26164;DHT22;13914;48.178;11.716;2022-12-10T05:41:22;1.10;99.90
26164;DHT22;13914;48.178;11.716;2022-12-10T05:43:49;1.10;99.90
26164;DHT22;13914;48.178;11.716;2022-12-10T05:46:16;1.10;99.90
26164;DHT22;13914;48.178;11.716;2022-12-10T05:48:43;1.10;99.90
26164;DHT22;13914;48.178;11.716;2022-12-10T05:51:12;1.00;99.90
26164;DHT22;13914;48.178;11.716;2022-12-10T05:53:40;1.10;99.90
26164;DHT22;13914;48.178;11.716;2022-12-10T05:56:07;1.10;99.90
26164;DHT22;13914;48.178;11.716;2022-12-10T05:58:35;1.10;99.90
26164;DHT22;13914;48.178;11.716;2022-12-10T06:01:05;1.10;99.90
26164;DHT22;13914;48.178;11.716;2022-12-10T06:03:31;1.10;99.90
26164;DHT22;13914;48.178;11.716;2022-12-10T06:05:57;1.10;99.90
26164;DHT22;13914;48.178;11.716;2022-12-10T06:08:23;1.10;99.90
26164;DHT22;13914;48.178;11.716;2022-12-10T06:10:48;1.10;99.90
26164;DHT22;13914;48.178;11.716;2022-12-10T06:13:14;1.00;99.90
26164;DHT22;13914;48.178;11.716;2022-12-10T06:15:40;1.10;99.90
26164;DHT22;13914;48.178;11.716;2022-12-10T06:18:06;1.00;99.90
26164;DHT22;13914;48.178;11.716;2022-12-10T06:20:32;1.10;99.90
26164;DHT22;13914;48.178;11.716;2022-12-10T06:22:58;1.00;99.90
26164;DHT22;13914;48.178;11.716;2022-12-10T06:25:24;1.00;99.90
26164;DHT22;13914;48.178;11.716;2022-12-10T06:27:49;1.00;99.90
26164;DHT22;13914;48.178;11.716;2022-12-10T06:30:15;1.00;99.90
26164;DHT22;13914;48.178;11.716;2022-12-10T06:32:41;1.00;99.90
26164;DHT22;13914;48.178;11.716;2022-12-10T06:35:08;1.00;99.90
26164;DHT22;13914;48.178;11.716;2022-12-10T06:37:35;1.10;99.90
26164;DHT22;13914;48.178;11.716;2022-12-10T06:40:00;1.10;99.90
26164;DHT22;13914;48.178;11.716;2022-12-10T06:42:26;1.00;99.90
26164;DHT22;13914;48.178;11.716;2022-12-10T06:44:52;1.00;99.90
26164;DHT22;13914;48.178;11.716;2022-12-10T06:47:17;1.10;99.90
26164;DHT22;13914;48.178;11.716;2022-12-10T06:49:43;1.10;99.90
26164;DHT22;13914;48.178;11.716;2022-12-10T06:52:09;1.00;99.90
26164;DHT22;13914;48.178;11.716;2022-12-10T06:54:34;1.00;99.90
26164;DHT22;13914;48.178;11.716;2022-12-10T06:57:00;1.00;99.90
26164;DHT22;13914;48.178;11.716;2022-12-10T06:59:26;1.00;99.90
26164;DHT22;13914;48.178;11.716;2022-12-10T07:01:52;1.10;99.90
26164;DHT22;13914;48.178;11.716;2022-12-10T07:04:17;1.00;99.90
26164;DHT22;13914;48.178;11.716;2022-12-10T07:06:43;1.00;99.90
26164;DHT22;13914;48.178;11.716;2022-12-10T07:09:09;1.00;99.90
26164;DHT22;13914;48.178;11.716;2022-12-10T07:11:35;1.00;99.90
26164;DHT22;13914;48.178;11.716;2022-12-10T07:14:01;1.10;99.90
26164;DHT22;13914;48.178;11.716;2022-12-10T07:16:28;1.00;99.90
26164;DHT22;13914;48.178;11.716;2022-12-10T07:18:55;1.00;99.90
26164;DHT22;13914;48.178;11.716;2022-12-10T07:21:26;1.00;99.90
26164;DHT22;13914;48.178;11.716;2022-12-10T07:23:54;1.00;99.90
26164;DHT22;13914;48.178;11.716;2022-12-10T07:26:23;1.10;99.90
26164;DHT22;13914;48.178;11.716;2022-12-10T07:28:49;1.10;99.90
26164;DHT22;13914;48.178;11.716;2022-12-10T07:31:15;1.10;99.90
26164;DHT22;13914;48.178;11.716;2022-12-10T07:33:41;1.00;99.90
26164;DHT22;13914;48.178;11.716;2022-12-10T07:36:07;1.10;99.90
26164;DHT22;13914;48.178;11.716;2022-12-10T07:38:34;1.10;99.90
26164;DHT22;13914;48.178;11.716;2022-12-10T07:41:07;1.00;99.90
26164;DHT22;13914;48.178;11.716;2022-12-10T07:43:39;1.00;99.90
26164;DHT22;13914;48.178;11.716;2022-12-10T07:46:06;1.10;99.90
26164;DHT22;13914;48.178;11.716;2022-12-10T07:48:33;1.10;99.90
26164;DHT22;13914;48.178;11.716;2022-12-10T07:51:00;1.00;99.90
26164;DHT22;13914;48.178;11.716;2022-12-10T07:53:25;1.10;99.90
26164;DHT22;13914;48.178;11.716;2022-12-10T07:55:51;1.10;99.90
26164;DHT22;13914;48.178;11.716;2022-12-10T07:58:17;1.00;99.90
26164;DHT22;13914;48.178;11.716;2022-12-10T08:00:42;1.10;99.90
26164;DHT22;13914;48.178;11.716;2022-12-10T08:03:08;1.00;99.90
26164;DHT22;13914;48.178;11.716;2022-12-10T08:05:34;1.10;99.90
26164;DHT22;13914;48.178;11.716;2022-12-10T08:07:59;1.00;99.90
26164;DHT22;13914;48.178;11.716;2022-12-10T08:10:25;1.00;99.90
26164;DHT22;13914;48.178;11.716;2022-12-10T08:12:51;1.10;99.90
26164;DHT22;13914;48.178;11.716;2022-12-10T08:15:16;1.10;99.90
26164;DHT22;13914;48.178;11.716;2022-12-10T08:17:42;1.10;99.90
26164;DHT22;13914;48.178;11.716;2022-12-10T08:20:08;1.10;99.90
26164;DHT22;13914;48.178;11.716;2022-12-10T08:22:34;1.10;99.90
26164;DHT22;13914;48.178;11.716;2022-12-10T08:25:00;1.10;99.90
26164;DHT22;13914;48.178;11.716;2022-12-10T08:27:26;1.10;99.90
26164;DHT22;13914;48.178;11.716;2022-12-10T08:29:52;1.10;99.90
26164;DHT22;13914;48.178;11.716;2022-12-10T08:32:18;1.10;99.90
26164;DHT22;13914;48.178;11.716;2022-12-10T08:34:44;1.10;99.90
26164;DHT22;13914;48.178;11.716;2022-12-10T08:37:09;1.10;99.90
26164;DHT22;13914;48.178;11.716;2022-12-10T08:39:35;1.10;99.90
26164;DHT22;13914;48.178;11.716;2022-12-10T08:42:01;1.10;99.90
26164;DHT22;13914;48.178;11.716;2022-12-10T08:44:27;1.10;99.90
26164;DHT22;13914;48.178;11.716;2022-12-10T08:46:52;1.10;99.90
26164;DHT22;13914;48.178;11.716;2022-12-10T08:49:18;1.10;99.90
26164;DHT22;13914;48.178;11.716;2022-12-10T08:51:44;1.10;99.90
26164;DHT22;13914;48.178;11.716;2022-12-10T08:54:09;1.10;99.90
26164;DHT22;13914;48.178;11.716;2022-12-10T08:56:35;1.10;99.90
26164;DHT22;13914;48.178;11.716;2022-12-10T08:59:01;1.10;99.90
26164;DHT22;13914;48.178;11.716;2022-12-10T09:01:27;1.10;99.90
26164;DHT22;13914;48.178;11.716;2022-12-10T09:03:53;1.20;99.90
26164;DHT22;13914;48.178;11.716;2022-12-10T09:06:19;1.20;99.90
26164;DHT22;13914;48.178;11.716;2022-12-10T09:08:46;1.20;99.90
26164;DHT22;13914;48.178;11.716;2022-12-10T09:11:17;1.20;99.90
26164;DHT22;13914;48.178;11.716;2022-12-10T09:13:48;1.20;99.90
26164;DHT22;13914;48.178;11.716;2022-12-10T09:16:13;1.20;99.90
26164;DHT22;13914;48.178;11.716;2022-12-10T09:18:39;1.20;99.90
26164;DHT22;13914;48.178;11.716;2022-12-10T09:21:06;1.20;99.90
26164;DHT22;13914;48.178;11.716;2022-12-10T09:23:33;1.20;99.90
26164;DHT22;13914;48.178;11.716;2022-12-10T09:25:59;1.20;99.90
26164;DHT22;13914;48.178;11.716;2022-12-10T09:28:25;1.20;99.90
26164;DHT22;13914;48.178;11.716;2022-12-10T09:31:00;1.20;99.90
26164;DHT22;13914;48.178;11.716;2022-12-10T09:33:26;1.20;99.90
26164;DHT22;13914;48.178;11.716;2022-12-10T09:35:52;1.30;99.90
26164;DHT22;13914;48.178;11.716;2022-12-10T09:38:18;1.20;99.90
26164;DHT22;13914;48.178;11.716;2022-12-10T09:43:26;1.30;99.90
26164;DHT22;13914;48.178;11.716;2022-12-10T09:45:57;1.30;99.90
26164;DHT22;13914;48.178;11.716;2022-12-10T09:48:29;1.30;99.90
26164;DHT22;13914;48.178;11.716;2022-12-10T09:53:29;1.30;99.90
26164;DHT22;13914;48.178;11.716;2022-12-10T09:55:56;1.30;99.90
26164;DHT22;13914;48.178;11.716;2022-12-10T09:58:23;1.30;99.90
26164;DHT22;13914;48.178;11.716;2022-12-10T10:00:52;1.30;99.90
26164;DHT22;13914;48.178;11.716;2022-12-10T10:03:21;1.30;99.90
26164;DHT22;13914;48.178;11.716;2022-12-10T10:05:48;1.30;99.90
26164;DHT22;13914;48.178;11.716;2022-12-10T10:10:58;1.30;99.90
26164;DHT22;13914;48.178;11.716;2022-12-10T10:13:32;1.30;99.90
26164;DHT22;13914;48.178;11.716;2022-12-10T10:16:14;1.30;99.90
26164;DHT22;13914;48.178;11.716;2022-12-10T10:18:45;1.30;99.90
26164;DHT22;13914;48.178;11.716;2022-12-10T10:21:23;1.30;99.90
26164;DHT22;13914;48.178;11.716;2022-12-10T10:23:50;1.30;99.90
26164;DHT22;13914;48.178;11.716;2022-12-10T10:26:16;1.30;99.90
26164;DHT22;13914;48.178;11.716;2022-12-10T10:28:42;1.30;99.90
26164;DHT22;13914;48.178;11.716;2022-12-10T10:31:19;1.30;99.90
26164;DHT22;13914;48.178;11.716;2022-12-10T10:33:51;1.30;99.90
26164;DHT22;13914;48.178;11.716;2022-12-10T10:36:26;1.30;99.90
26164;DHT22;13914;48.178;11.716;2022-12-10T10:38:53;1.40;99.90
26164;DHT22;13914;48.178;11.716;2022-12-10T10:41:19;1.30;99.90
26164;DHT22;13914;48.178;11.716;2022-12-10T10:43:45;1.40;99.90
26164;DHT22;13914;48.178;11.716;2022-12-10T10:46:12;1.30;99.90
26164;DHT22;13914;48.178;11.716;2022-12-10T10:48:39;1.30;99.90
26164;DHT22;13914;48.178;11.716;2022-12-10T10:53:40;1.40;99.90
26164;DHT22;13914;48.178;11.716;2022-12-10T10:56:21;1.40;99.90
26164;DHT22;13914;48.178;11.716;2022-12-10T10:58:53;1.40;99.90
26164;DHT22;13914;48.178;11.716;2022-12-10T11:01:21;1.40;99.90
26164;DHT22;13914;48.178;11.716;2022-12-10T11:03:57;1.40;99.90
26164;DHT22;13914;48.178;11.716;2022-12-10T11:06:23;1.40;99.90
26164;DHT22;13914;48.178;11.716;2022-12-10T11:08:50;1.40;99.90
26164;DHT22;13914;48.178;11.716;2022-12-10T11:11:21;1.40;99.90
26164;DHT22;13914;48.178;11.716;2022-12-10T11:13:49;1.40;99.90
26164;DHT22;13914;48.178;11.716;2022-12-10T11:18:41;1.40;99.90
26164;DHT22;13914;48.178;11.716;2022-12-10T11:23:38;1.50;99.90
26164;DHT22;13914;48.178;11.716;2022-12-10T11:28:40;1.50;99.90
26164;DHT22;13914;48.178;11.716;2022-12-10T11:31:29;1.50;99.90
26164;DHT22;13914;48.178;11.716;2022-12-10T11:34:16;1.50;99.90
26164;DHT22;13914;48.178;11.716;2022-12-10T11:36:49;1.50;99.90
26164;DHT22;13914;48.178;11.716;2022-12-10T11:39:30;1.50;99.90
26164;DHT22;13914;48.178;11.716;2022-12-10T11:42:23;1.50;99.90
26164;DHT22;13914;48.178;11.716;2022-12-10T12:01:22;1.50;99.90
26164;DHT22;13914;48.178;11.716;2022-12-10T12:09:54;1.60;99.90
26164;DHT22;13914;48.178;11.716;2022-12-10T12:18:20;1.60;99.90
26164;DHT22;13914;48.178;11.716;2022-12-10T12:20:53;1.60;99.90
26164;DHT22;13914;48.178;11.716;2022-12-10T12:25:52;1.60;99.90
26164;DHT22;13914;48.178;11.716;2022-12-10T12:28:35;1.60;99.90
26164;DHT22;13914;48.178;11.716;2022-12-10T12:31:12;1.60;99.90
26164;DHT22;13914;48.178;11.716;2022-12-10T12:33:50;1.60;99.90
26164;DHT22;13914;48.178;11.716;2022-12-10T12:36:21;1.60;99.90
26164;DHT22;13914;48.178;11.716;2022-12-10T12:46:47;1.60;99.90
26164;DHT22;13914;48.178;11.716;2022-12-10T12:49:16;1.60;99.90
26164;DHT22;13914;48.178;11.716;2022-12-10T12:51:48;1.60;99.90
26164;DHT22;13914;48.178;11.716;2022-12-10T12:54:19;1.60;99.90
26164;DHT22;13914;48.178;11.716;2022-12-10T12:57:07;1.60;99.90
26164;DHT22;13914;48.178;11.716;2022-12-10T13:05:27;1.60;99.90
26164;DHT22;13914;48.178;11.716;2022-12-10T13:08:37;1.60;99.90
26164;DHT22;13914;48.178;11.716;2022-12-10T13:11:30;1.60;99.90
26164;DHT22;13914;48.178;11.716;2022-12-10T13:24:21;1.60;99.90
26164;DHT22;13914;48.178;11.716;2022-12-10T13:27:17;1.60;99.90
26164;DHT22;13914;48.178;11.716;2022-12-10T13:40:22;1.60;99.90
26164;DHT22;13914;48.178;11.716;2022-12-10T13:42:55;1.60;99.90
26164;DHT22;13914;48.178;11.716;2022-12-10T13:45:41;1.60;99.90
26164;DHT22;13914;48.178;11.716;2022-12-10T13:53:54;1.60;99.90
26164;DHT22;13914;48.178;11.716;2022-12-10T14:02:02;1.60;99.90
26164;DHT22;13914;48.178;11.716;2022-12-10T14:07:21;1.60;99.90
26164;DHT22;13914;48.178;11.716;2022-12-10T14:09:54;1.60;99.90
26164;DHT22;13914;48.178;11.716;2022-12-10T14:12:24;1.60;99.90
26164;DHT22;13914;48.178;11.716;2022-12-10T14:14:55;1.60;99.90
26164;DHT22;13914;48.178;11.716;2022-12-10T14:17:24;1.60;99.90
26164;DHT22;13914;48.178;11.716;2022-12-10T14:19:56;1.60;99.90
26164;DHT22;13914;48.178;11.716;2022-12-10T14:22:33;1.60;99.90
26164;DHT22;13914;48.178;11.716;2022-12-10T14:25:00;1.60;99.90
26164;DHT22;13914;48.178;11.716;2022-12-10T14:27:29;1.60;99.90
26164;DHT22;13914;48.178;11.716;2022-12-10T14:30:15;1.50;99.90
26164;DHT22;13914;48.178;11.716;2022-12-10T14:32:48;1.50;99.90
26164;DHT22;13914;48.178;11.716;2022-12-10T14:35:25;1.50;99.90
26164;DHT22;13914;48.178;11.716;2022-12-10T14:37:52;1.50;99.90
26164;DHT22;13914;48.178;11.716;2022-12-10T14:40:25;1.50;99.90
26164;DHT22;13914;48.178;11.716;2022-12-10T14:42:53;1.50;99.90
26164;DHT22;13914;48.178;11.716;2022-12-10T14:45:25;1.50;99.90
26164;DHT22;13914;48.178;11.716;2022-12-10T14:47:53;1.50;99.90
26164;DHT22;13914;48.178;11.716;2022-12-10T14:50:18;1.50;99.90
26164;DHT22;13914;48.178;11.716;2022-12-10T14:52:45;1.50;99.90
26164;DHT22;13914;48.178;11.716;2022-12-10T14:55:17;1.50;99.90
26164;DHT22;13914;48.178;11.716;2022-12-10T14:57:47;1.50;99.90
26164;DHT22;13914;48.178;11.716;2022-12-10T15:00:16;1.40;99.90
26164;DHT22;13914;48.178;11.716;2022-12-10T15:02:44;1.40;99.90
26164;DHT22;13914;48.178;11.716;2022-12-10T15:05:15;1.40;99.90
26164;DHT22;13914;48.178;11.716;2022-12-10T15:07:48;1.50;99.90
26164;DHT22;13914;48.178;11.716;2022-12-10T15:10:21;1.40;99.90
26164;DHT22;13914;48.178;11.716;2022-12-10T15:12:49;1.40;99.90
26164;DHT22;13914;48.178;11.716;2022-12-10T15:23:30;1.40;99.90
26164;DHT22;13914;48.178;11.716;2022-12-10T15:28:34;1.40;99.90
26164;DHT22;13914;48.178;11.716;2022-12-10T15:31:11;1.40;99.90
26164;DHT22;13914;48.178;11.716;2022-12-10T15:33:58;1.40;99.90
26164;DHT22;13914;48.178;11.716;2022-12-10T15:36:33;1.40;99.90
26164;DHT22;13914;48.178;11.716;2022-12-10T15:39:05;1.30;99.90
26164;DHT22;13914;48.178;11.716;2022-12-10T15:41:44;1.40;99.90
26164;DHT22;13914;48.178;11.716;2022-12-10T15:46:59;1.40;99.90
26164;DHT22;13914;48.178;11.716;2022-12-10T15:49:27;1.30;99.90
26164;DHT22;13914;48.178;11.716;2022-12-10T15:51:53;1.30;99.90
26164;DHT22;13914;48.178;11.716;2022-12-10T15:54:20;1.30;99.90
26164;DHT22;13914;48.178;11.716;2022-12-10T15:56:46;1.30;99.90
26164;DHT22;13914;48.178;11.716;2022-12-10T15:59:12;1.30;99.90
26164;DHT22;13914;48.178;11.716;2022-12-10T16:01:38;1.30;99.90
26164;DHT22;13914;48.178;11.716;2022-12-10T16:04:03;1.30;99.90
26164;DHT22;13914;48.178;11.716;2022-12-10T16:06:29;1.30;99.90
26164;DHT22;13914;48.178;11.716;2022-12-10T16:08:55;1.30;99.90
26164;DHT22;13914;48.178;11.716;2022-12-10T16:11:21;1.30;99.90
26164;DHT22;13914;48.178;11.716;2022-12-10T16:13:51;1.20;99.90
26164;DHT22;13914;48.178;11.716;2022-12-10T16:16:18;1.30;99.90
26164;DHT22;13914;48.178;11.716;2022-12-10T16:18:43;1.20;99.90
26164;DHT22;13914;48.178;11.716;2022-12-10T16:21:09;1.20;99.90
26164;DHT22;13914;48.178;11.716;2022-12-10T16:23:35;1.20;99.90
26164;DHT22;13914;48.178;11.716;2022-12-10T16:26:02;1.20;99.90
26164;DHT22;13914;48.178;11.716;2022-12-10T16:28:48;1.20;99.90
26164;DHT22;13914;48.178;11.716;2022-12-10T16:31:16;1.10;99.90
26164;DHT22;13914;48.178;11.716;2022-12-10T16:33:43;1.10;99.90
26164;DHT22;13914;48.178;11.716;2022-12-10T16:36:10;1.10;99.90
26164;DHT22;13914;48.178;11.716;2022-12-10T16:38:36;1.10;99.90
26164;DHT22;13914;48.178;11.716;2022-12-10T16:41:03;1.10;99.90
26164;DHT22;13914;48.178;11.716;2022-12-10T16:43:29;1.10;99.90
26164;DHT22;13914;48.178;11.716;2022-12-10T16:45:55;1.10;99.90
26164;DHT22;13914;48.178;11.716;2022-12-10T16:48:21;1.10;99.90
26164;DHT22;13914;48.178;11.716;2022-12-10T16:50:48;1.10;99.90
26164;DHT22;13914;48.178;11.716;2022-12-10T16:53:16;1.10;99.90
26164;DHT22;13914;48.178;11.716;2022-12-10T16:55:49;1.10;99.90
26164;DHT22;13914;48.178;11.716;2022-12-10T16:58:15;1.10;99.90
26164;DHT22;13914;48.178;11.716;2022-12-10T17:00:44;1.10;99.90
26164;DHT22;13914;48.178;11.716;2022-12-10T17:03:14;1.10;99.90
26164;DHT22;13914;48.178;11.716;2022-12-10T17:05:50;1.10;99.90
26164;DHT22;13914;48.178;11.716;2022-12-10T17:08:21;1.10;99.90
26164;DHT22;13914;48.178;11.716;2022-12-10T17:10:47;1.10;99.90
26164;DHT22;13914;48.178;11.716;2022-12-10T17:13:33;1.00;99.90
26164;DHT22;13914;48.178;11.716;2022-12-10T17:15:59;1.10;99.90
26164;DHT22;13914;48.178;11.716;2022-12-10T17:18:25;1.00;99.90
26164;DHT22;13914;48.178;11.716;2022-12-10T17:20:51;1.00;99.90
26164;DHT22;13914;48.178;11.716;2022-12-10T17:23:17;1.00;99.90
26164;DHT22;13914;48.178;11.716;2022-12-10T17:25:43;1.00;99.90
26164;DHT22;13914;48.178;11.716;2022-12-10T17:28:20;0.90;99.90
26164;DHT22;13914;48.178;11.716;2022-12-10T17:30:46;0.90;99.90
26164;DHT22;13914;48.178;11.716;2022-12-10T17:33:13;0.90;99.90
26164;DHT22;13914;48.178;11.716;2022-12-10T17:35:43;0.90;99.90
26164;DHT22;13914;48.178;11.716;2022-12-10T17:38:13;0.90;99.90
26164;DHT22;13914;48.178;11.716;2022-12-10T17:40:41;0.90;99.90
26164;DHT22;13914;48.178;11.716;2022-12-10T17:43:06;0.90;99.90
26164;DHT22;13914;48.178;11.716;2022-12-10T17:45:32;0.90;99.90
26164;DHT22;13914;48.178;11.716;2022-12-10T17:47:58;0.90;99.90